createdAt,value
2018-06-29T00:02:15.900Z,47.85
2018-06-29T00:04:43.960Z,47.94
2018-06-29T00:07:12.021Z,48.38
2018-06-29T00:09:40.065Z,48.41
2018-06-29T00:12:08.127Z,48.29
2018-06-29T00:14:36.181Z,48.02
2018-06-29T00:17:04.243Z,48.42
2018-06-29T00:19:32.293Z,48.53
2018-06-29T00:22:00.438Z,48.87
2018-06-29T00:24:28.436Z,48.97
2018-06-29T00:26:56.507Z,48.78
2018-06-29T00:29:24.558Z,48.81
2018-06-29T00:31:52.621Z,48.27
2018-06-29T00:34:20.753Z,48.21
2018-06-29T00:36:48.821Z,48.26
2018-06-29T00:39:16.884Z,48.16
2018-06-29T00:41:44.952Z,48.57
2018-06-29T00:44:13.168Z,47.93
2018-06-29T00:46:41.065Z,48.98
2018-06-29T00:49:09.123Z,48.01
2018-06-29T00:51:37.189Z,48.47
2018-06-29T00:54:05.324Z,48.78
2018-06-29T00:56:33.432Z,48.65
2018-06-29T00:59:01.492Z,48.78
2018-06-29T01:01:29.545Z,48.66
2018-06-29T01:03:57.605Z,48.73
2018-06-29T01:06:25.695Z,48.96
2018-06-29T01:08:53.756Z,48.80
2018-06-29T01:11:21.812Z,48.91
2018-06-29T01:13:49.884Z,48.31
2018-06-29T01:16:18.537Z,48.62
2018-06-29T01:18:46.600Z,49.02
2018-06-29T01:21:14.641Z,48.87
2018-06-29T01:23:42.693Z,49.00
2018-06-29T01:26:10.755Z,49.13
2018-06-29T01:28:38.883Z,49.00
2018-06-29T01:31:06.941Z,48.87
2018-06-29T01:33:34.998Z,48.69
2018-06-29T01:36:03.025Z,48.87
2018-06-29T01:38:31.088Z,48.53
2018-06-29T01:40:59.128Z,49.03
2018-06-29T01:43:27.192Z,48.84
2018-06-29T01:45:55.264Z,49.32
2018-06-29T01:48:23.304Z,48.32
2018-06-29T01:50:51.337Z,48.70
2018-06-29T01:53:19.400Z,48.31
2018-06-29T01:55:47.436Z,49.13
2018-06-29T01:58:15.483Z,48.42
2018-06-29T02:00:43.619Z,48.76
2018-06-29T02:03:11.689Z,49.10
2018-06-29T02:05:39.740Z,48.71
2018-06-29T02:08:07.883Z,48.44
2018-06-29T02:10:35.831Z,48.45
2018-06-29T02:13:03.882Z,48.51
2018-06-29T02:15:31.932Z,49.13
2018-06-29T02:17:59.984Z,48.70
2018-06-29T02:20:28.016Z,48.71
2018-06-29T02:22:56.080Z,48.80
2018-06-29T02:25:24.124Z,48.88
2018-06-29T02:27:52.184Z,49.34
2018-06-29T02:30:20.210Z,49.49
2018-06-29T02:32:48.320Z,48.93
2018-06-29T02:35:16.360Z,49.62
2018-06-29T02:37:44.433Z,48.89
2018-06-29T02:40:12.456Z,49.43
2018-06-29T02:42:40.481Z,49.31
2018-06-29T02:45:08.527Z,49.57
2018-06-29T02:47:36.659Z,49.88
2018-06-29T02:50:04.712Z,49.40
2018-06-29T02:52:32.780Z,49.57
2018-06-29T02:55:00.836Z,49.41
2018-06-29T02:57:28.864Z,49.70
2018-06-29T02:59:56.919Z,49.48
2018-06-29T03:02:24.956Z,50.11
2018-06-29T03:04:53.008Z,49.78
2018-06-29T03:07:21.044Z,49.76
2018-06-29T03:09:49.116Z,50.27
2018-06-29T03:12:17.178Z,50.13
2018-06-29T03:14:45.251Z,50.34
2018-06-29T03:17:13.288Z,50.67
2018-06-29T03:19:41.345Z,50.07
2018-06-29T03:22:09.397Z,50.63
2018-06-29T03:24:37.443Z,50.19
2018-06-29T03:27:05.592Z,50.18
2018-06-29T03:29:33.639Z,50.21
2018-06-29T03:32:01.685Z,50.51
2018-06-29T03:34:29.724Z,50.83
2018-06-29T03:36:57.755Z,50.51
2018-06-29T03:39:25.790Z,50.02
2018-06-29T03:41:53.825Z,50.58
2018-06-29T03:44:21.872Z,50.03
2018-06-29T03:46:49.910Z,50.22
2018-06-29T03:49:17.961Z,50.57
2018-06-29T03:51:45.991Z,50.74
2018-06-29T03:54:14.053Z,50.76
2018-06-29T03:56:42.088Z,50.97
2018-06-29T03:59:10.152Z,50.29
2018-06-29T04:01:38.205Z,50.31
2018-06-29T04:04:06.427Z,50.67
2018-06-29T04:06:34.483Z,50.65
2018-06-29T04:09:02.548Z,50.98
2018-06-29T04:11:30.610Z,50.81
2018-06-29T04:13:58.648Z,50.56
2018-06-29T04:16:26.702Z,51.39
2018-06-29T04:18:54.738Z,51.32
2018-06-29T04:21:22.783Z,51.20
2018-06-29T04:23:50.823Z,51.46
2018-06-29T04:26:18.878Z,51.10
2018-06-29T04:28:46.912Z,50.73
2018-06-29T04:31:14.960Z,51.28
2018-06-29T04:33:43.015Z,51.29
2018-06-29T04:36:11.134Z,51.30
2018-06-29T04:38:39.178Z,51.80
2018-06-29T04:41:07.666Z,51.72
2018-06-29T04:43:35.760Z,51.64
2018-06-29T04:46:03.828Z,51.07
2018-06-29T04:48:31.911Z,51.37
2018-06-29T04:50:59.961Z,51.50
2018-06-29T04:53:28.006Z,52.37
2018-06-29T04:55:56.080Z,52.82
2018-06-29T04:58:24.158Z,53.16
2018-06-29T05:00:52.475Z,53.11
2018-06-29T05:03:20.505Z,53.49
2018-06-29T05:05:48.527Z,53.81
2018-06-29T05:08:16.589Z,53.88
2018-06-29T05:10:44.658Z,54.60
2018-06-29T05:13:12.703Z,54.51
2018-06-29T05:15:40.745Z,54.68
2018-06-29T05:18:09.047Z,55.00
2018-06-29T05:20:37.121Z,55.12
2018-06-29T05:23:05.504Z,55.44
2018-06-29T05:25:33.652Z,55.56
2018-06-29T05:28:01.755Z,56.01
2018-06-29T05:30:29.792Z,55.87
2018-06-29T05:32:57.852Z,55.55
2018-06-29T05:35:25.912Z,55.98
2018-06-29T05:37:54.002Z,55.59
2018-06-29T05:40:22.048Z,56.33
2018-06-29T05:42:50.107Z,55.56
2018-06-29T05:45:18.128Z,56.13
2018-06-29T05:47:46.259Z,55.95
2018-06-29T05:50:14.288Z,55.45
2018-06-29T05:52:42.332Z,55.43
2018-06-29T05:55:10.369Z,55.62
2018-06-29T05:57:38.425Z,55.96
2018-06-29T06:00:06.940Z,55.83
2018-06-29T06:02:35.041Z,54.82
2018-06-29T06:05:03.109Z,54.91
2018-06-29T06:07:31.163Z,54.85
2018-06-29T06:09:59.229Z,54.46
2018-06-29T06:12:27.279Z,54.47
2018-06-29T06:14:55.366Z,54.63
2018-06-29T06:17:23.403Z,55.14
2018-06-29T06:20:03.203Z,54.74
2018-06-29T06:22:31.292Z,53.74
2018-06-29T06:24:59.395Z,53.98
2018-06-29T06:27:27.689Z,53.62
2018-06-29T06:29:56.086Z,53.68
2018-06-29T06:32:24.161Z,52.99
2018-06-29T06:34:52.239Z,52.95
2018-06-29T06:37:20.590Z,52.91
2018-06-29T06:39:48.692Z,52.50
2018-06-29T06:42:16.764Z,52.15
2018-06-29T06:44:45.117Z,51.38
2018-06-29T06:47:13.211Z,51.23
2018-06-29T06:49:41.325Z,51.44
2018-06-29T06:52:09.388Z,50.49
2018-06-29T06:54:37.540Z,50.43
2018-06-29T06:57:05.748Z,48.89
2018-06-29T06:59:33.925Z,49.32
2018-06-29T07:02:01.945Z,48.57
2018-06-29T07:04:30.052Z,48.08
2018-06-29T07:06:58.116Z,47.84
2018-06-29T07:09:26.251Z,47.86
2018-06-29T07:11:54.320Z,46.91
2018-06-29T07:14:22.395Z,47.54
2018-06-29T07:16:50.462Z,46.69
2018-06-29T07:19:18.538Z,46.43
2018-06-29T07:21:46.603Z,47.37
2018-06-29T07:24:14.643Z,46.79
2018-06-29T07:26:42.709Z,45.70
2018-06-29T07:29:10.765Z,46.02
2018-06-29T07:31:38.931Z,45.89
2018-06-29T07:34:07.031Z,45.43
2018-06-29T07:36:35.139Z,44.83
2018-06-29T07:39:03.204Z,45.02
2018-06-29T07:41:31.269Z,44.50
2018-06-29T07:43:59.327Z,44.17
2018-06-29T07:46:27.396Z,43.91
2018-06-29T07:48:55.456Z,43.96
2018-06-29T07:51:23.518Z,43.35
2018-06-29T07:53:51.592Z,43.30
2018-06-29T07:56:19.815Z,42.44
2018-06-29T07:58:47.920Z,42.34
2018-06-29T08:01:15.927Z,42.45
2018-06-29T08:03:43.996Z,41.72
2018-06-29T08:06:12.067Z,41.30
2018-06-29T08:08:40.139Z,41.02
2018-06-29T08:11:08.248Z,41.27
2018-06-29T08:13:36.312Z,39.89
2018-06-29T08:16:04.365Z,40.72
2018-06-29T08:18:32.432Z,39.29
2018-06-29T08:21:00.480Z,39.87
2018-06-29T08:23:31.693Z,39.25
2018-06-29T08:26:31.035Z,39.02
2018-06-29T08:28:59.096Z,38.76
2018-06-29T08:31:27.164Z,37.68
2018-06-29T08:33:55.218Z,37.16
2018-06-29T08:36:23.264Z,36.98
2018-06-29T08:38:51.323Z,36.87
2018-06-29T08:41:19.408Z,36.44
2018-06-29T08:43:47.497Z,36.17
2018-06-29T08:46:15.554Z,36.70
2018-06-29T08:48:43.611Z,36.85
2018-06-29T08:51:11.668Z,36.63
2018-06-29T08:53:39.731Z,35.22
2018-06-29T08:56:07.866Z,35.92
2018-06-29T08:58:35.935Z,35.40
2018-06-29T09:01:03.987Z,35.78
2018-06-29T09:03:32.060Z,35.71
2018-06-29T09:06:00.096Z,34.47
2018-06-29T09:08:28.157Z,35.46
2018-06-29T09:10:56.202Z,34.61
2018-06-29T09:13:24.259Z,34.01
2018-06-29T09:15:52.356Z,33.64
2018-06-29T09:18:20.412Z,35.07
2018-06-29T09:20:48.453Z,34.27
2018-06-29T09:23:16.512Z,34.48
2018-06-29T09:25:44.550Z,34.70
2018-06-29T09:28:12.596Z,33.90
2018-06-29T09:30:40.645Z,33.77
2018-06-29T09:33:08.706Z,33.65
2018-06-29T09:35:36.751Z,34.51
2018-06-29T09:38:04.829Z,33.46
2018-06-29T09:40:32.885Z,34.05
2018-06-29T09:43:00.935Z,34.24
2018-06-29T09:45:28.995Z,33.75
2018-06-29T09:47:57.149Z,33.96
2018-06-29T09:50:25.108Z,34.43
2018-06-29T09:52:53.168Z,33.51
2018-06-29T09:55:21.220Z,34.00
2018-06-29T09:57:49.276Z,32.86
2018-06-29T10:00:21.504Z,34.21
2018-06-29T10:02:49.564Z,34.30
2018-06-29T10:05:17.608Z,33.59
2018-06-29T10:07:45.668Z,34.52
2018-06-29T10:10:13.717Z,34.58
2018-06-29T10:12:41.852Z,34.06
2018-06-29T10:15:09.900Z,33.20
2018-06-29T10:17:37.945Z,32.94
2018-06-29T10:20:06.080Z,33.08
2018-06-29T10:22:34.125Z,33.06
2018-06-29T10:25:02.162Z,32.83
2018-06-29T10:27:30.236Z,32.24
2018-06-29T10:29:58.282Z,32.07
2018-06-29T10:32:26.336Z,31.94
2018-06-29T10:34:54.384Z,31.68
2018-06-29T10:37:22.445Z,31.46
2018-06-29T10:39:50.512Z,32.31
2018-06-29T10:42:18.560Z,32.20
2018-06-29T10:44:46.724Z,31.47
2018-06-29T10:47:14.721Z,30.94
2018-06-29T10:49:42.816Z,31.58
2018-06-29T10:52:10.849Z,30.93
2018-06-29T10:54:38.913Z,30.23
2018-06-29T10:57:07.292Z,31.14
2018-06-29T10:59:35.419Z,29.81
2018-06-29T11:02:03.472Z,30.41
2018-06-29T11:04:31.569Z,30.16
2018-06-29T11:06:59.630Z,29.70
2018-06-29T11:09:27.684Z,29.26
2018-06-29T11:11:55.728Z,28.71
2018-06-29T11:14:23.784Z,27.83
2018-06-29T11:16:51.865Z,29.12
2018-06-29T11:19:19.923Z,28.45
2018-06-29T11:21:47.963Z,28.82
2018-06-29T11:24:16.024Z,28.82
2018-06-29T11:26:44.072Z,27.62
2018-06-29T11:29:12.140Z,27.36
2018-06-29T11:31:40.172Z,27.50
2018-06-29T11:34:08.246Z,27.44
2018-06-29T11:36:36.332Z,27.91
2018-06-29T11:39:06.900Z,27.52
2018-06-29T11:41:34.948Z,27.39
2018-06-29T11:44:03.041Z,27.93
2018-06-29T11:46:31.065Z,27.61
2018-06-29T11:48:59.124Z,27.46
2018-06-29T11:51:27.247Z,28.10
2018-06-29T11:53:55.249Z,28.15
2018-06-29T11:56:23.464Z,28.06
2018-06-29T11:58:51.536Z,27.37
2018-06-29T12:01:19.588Z,28.13
2018-06-29T12:03:47.628Z,27.38
2018-06-29T12:06:15.684Z,27.46
2018-06-29T12:08:43.860Z,27.50
2018-06-29T12:11:11.928Z,27.19
2018-06-29T12:13:40.398Z,27.67
2018-06-29T12:16:08.884Z,27.63
2018-06-29T12:18:37.243Z,26.60
2018-06-29T12:21:05.316Z,27.07
2018-06-29T12:23:33.365Z,27.13
2018-06-29T12:26:01.433Z,26.69
2018-06-29T12:28:29.477Z,26.42
2018-06-29T12:30:57.542Z,26.78
2018-06-29T12:33:25.593Z,26.55
2018-06-29T12:35:53.648Z,25.79
2018-06-29T12:38:21.723Z,26.58
2018-06-29T12:40:49.768Z,26.67
2018-06-29T12:43:17.824Z,26.67
2018-06-29T12:45:45.976Z,26.10
2018-06-29T12:48:14.051Z,27.27
2018-06-29T12:50:42.107Z,27.48
2018-06-29T12:53:10.152Z,27.02
2018-06-29T12:55:38.215Z,27.10
2018-06-29T12:58:06.305Z,27.38
2018-06-29T13:00:34.356Z,26.70
2018-06-29T13:03:02.411Z,26.74
2018-06-29T13:05:30.600Z,26.98
2018-06-29T13:07:58.566Z,27.02
2018-06-29T13:10:26.622Z,26.10
2018-06-29T13:12:55.102Z,27.06
2018-06-29T13:15:23.170Z,26.59
2018-06-29T13:17:51.242Z,26.72
2018-06-29T13:20:19.307Z,25.90
2018-06-29T13:22:47.347Z,25.94
2018-06-29T13:25:15.430Z,25.59
2018-06-29T13:27:43.468Z,26.01
2018-06-29T13:30:11.515Z,26.17
2018-06-29T13:32:39.574Z,26.97
2018-06-29T13:35:07.651Z,27.31
2018-06-29T13:37:35.683Z,26.94
2018-06-29T13:40:03.760Z,26.80
2018-06-29T13:42:31.801Z,26.62
2018-06-29T13:44:59.859Z,27.46
2018-06-29T13:47:27.900Z,27.79
2018-06-29T13:49:55.931Z,28.25
2018-06-29T13:52:23.988Z,27.36
2018-06-29T13:54:52.088Z,28.55
2018-06-29T13:57:20.119Z,28.73
2018-06-29T13:59:48.172Z,27.86
2018-06-29T14:02:16.247Z,29.26
2018-06-29T14:04:44.352Z,28.56
2018-06-29T14:07:12.421Z,29.34
2018-06-29T14:09:40.468Z,27.98
2018-06-29T14:12:08.531Z,28.68
2018-06-29T14:14:36.576Z,28.88
2018-06-29T14:17:04.672Z,28.64
2018-06-29T14:19:32.724Z,28.37
2018-06-29T14:22:00.787Z,29.04
2018-06-29T14:24:28.833Z,28.12
2018-06-29T14:26:56.880Z,28.37
2018-06-29T14:29:24.936Z,28.05
2018-06-29T14:31:52.988Z,26.51
2018-06-29T14:34:21.060Z,27.34
2018-06-29T14:36:49.118Z,26.78
2018-06-29T14:39:17.160Z,26.92
2018-06-29T14:41:45.265Z,26.74
2018-06-29T14:44:13.388Z,25.96
2018-06-29T14:46:41.472Z,27.02
2018-06-29T14:49:09.834Z,26.05
2018-06-29T14:51:37.934Z,25.82
2018-06-29T14:54:06.002Z,25.86
2018-06-29T14:56:34.092Z,27.08
2018-06-29T14:59:02.136Z,25.87
2018-06-29T15:01:30.219Z,26.91
2018-06-29T15:03:58.304Z,26.17
2018-06-29T15:06:26.364Z,26.17
2018-06-29T15:08:54.412Z,26.53
2018-06-29T15:11:22.533Z,24.99
2018-06-29T15:13:50.585Z,26.01
2018-06-29T15:16:18.660Z,24.78
2018-06-29T15:18:47.230Z,25.31
2018-06-29T15:21:15.309Z,24.51
2018-06-29T15:23:43.355Z,23.61
2018-06-29T15:26:11.436Z,23.88
2018-06-29T15:28:39.480Z,24.56
2018-06-29T15:31:07.612Z,24.21
2018-06-29T15:33:35.608Z,23.62
2018-06-29T15:36:03.670Z,24.29
2018-06-29T15:38:31.751Z,24.81
2018-06-29T15:40:59.812Z,24.30
2018-06-29T15:43:27.896Z,24.31
2018-06-29T15:45:55.951Z,24.86
2018-06-29T15:48:24.034Z,24.73
2018-06-29T15:50:52.072Z,24.11
2018-06-29T15:53:20.281Z,24.10
2018-06-29T15:55:48.329Z,24.40
2018-06-29T15:58:16.424Z,25.18
2018-06-29T16:00:44.474Z,24.00
2018-06-29T16:03:12.543Z,24.17
2018-06-29T16:05:40.648Z,25.19
2018-06-29T16:08:08.703Z,24.42
2018-06-29T16:10:36.761Z,25.95
2018-06-29T16:13:04.824Z,25.90
2018-06-29T16:15:32.904Z,26.66
2018-06-29T16:18:00.993Z,26.02
2018-06-29T16:20:29.036Z,25.77
2018-06-29T16:22:57.120Z,26.17
2018-06-29T16:25:25.173Z,26.53
2018-06-29T16:27:53.215Z,26.74
2018-06-29T16:30:21.319Z,27.41
2018-06-29T16:32:49.380Z,28.55
2018-06-29T16:35:17.476Z,30.13
2018-06-29T16:37:45.577Z,29.78
2018-06-29T16:40:13.660Z,30.97
2018-06-29T16:42:41.765Z,32.08
2018-06-29T16:45:09.809Z,32.18
2018-06-29T16:47:37.861Z,32.39
2018-06-29T16:50:06.476Z,32.89
2018-06-29T16:52:34.568Z,32.64
2018-06-29T16:55:02.650Z,31.94
2018-06-29T16:57:30.713Z,32.69
2018-06-29T16:59:58.762Z,32.85
2018-06-29T17:02:26.836Z,32.88
2018-06-29T17:04:54.899Z,32.59
2018-06-29T17:07:22.957Z,32.93
2018-06-29T17:09:50.997Z,32.52
2018-06-29T17:12:19.063Z,33.32
2018-06-29T17:14:47.176Z,32.48
2018-06-29T17:17:15.235Z,32.75
2018-06-29T17:19:43.288Z,32.93
2018-06-29T17:22:11.339Z,33.16
2018-06-29T17:24:39.392Z,32.88
2018-06-29T17:27:07.448Z,33.64
2018-06-29T17:29:35.512Z,33.26
2018-06-29T17:32:03.567Z,33.97
2018-06-29T17:34:31.620Z,33.87
2018-06-29T17:36:59.669Z,34.24
2018-06-29T17:39:27.723Z,35.09
2018-06-29T17:41:55.760Z,34.80
2018-06-29T17:44:23.804Z,34.58
2018-06-29T17:46:51.865Z,34.28
2018-06-29T17:49:19.911Z,34.61
2018-06-29T17:51:48.000Z,34.66
2018-06-29T17:54:16.066Z,35.75
2018-06-29T17:56:44.116Z,35.07
2018-06-29T17:59:12.167Z,36.60
2018-06-29T18:01:40.305Z,36.20
2018-06-29T18:04:08.360Z,37.46
2018-06-29T18:06:36.404Z,37.14
2018-06-29T18:09:07.002Z,37.55
2018-06-29T18:11:35.054Z,38.49
2018-06-29T18:14:03.123Z,38.15
2018-06-29T18:16:31.166Z,38.82
2018-06-29T18:19:01.314Z,39.57
2018-06-29T18:21:29.308Z,39.21
2018-06-29T18:24:00.550Z,39.91
2018-06-29T18:26:28.601Z,39.30
2018-06-29T18:28:56.662Z,39.82
2018-06-29T18:31:24.775Z,40.34
2018-06-29T18:33:52.844Z,39.74
2018-06-29T18:36:20.888Z,40.00
2018-06-29T18:38:48.941Z,41.03
2018-06-29T18:41:16.986Z,40.81
2018-06-29T18:43:45.025Z,40.64
2018-06-29T18:46:13.080Z,41.38
2018-06-29T18:48:41.142Z,41.43
2018-06-29T18:51:09.201Z,41.46
2018-06-29T18:53:37.278Z,41.34
2018-06-29T18:56:05.334Z,41.46
2018-06-29T18:58:33.409Z,42.11
2018-06-29T19:01:01.436Z,41.63
2018-06-29T19:03:29.492Z,41.99
2018-06-29T19:05:57.539Z,42.35
2018-06-29T19:08:25.575Z,43.19
2018-06-29T19:10:53.651Z,42.87
2018-06-29T19:13:21.688Z,43.81
2018-06-29T19:15:49.749Z,44.05
2018-06-29T19:18:17.806Z,44.06
2018-06-29T19:20:45.857Z,44.00
2018-06-29T19:23:13.897Z,44.38
2018-06-29T19:25:41.948Z,44.14
2018-06-29T19:28:10.006Z,44.68
2018-06-29T19:30:38.107Z,44.47
2018-06-29T19:33:06.708Z,44.95
2018-06-29T19:35:34.785Z,44.31
2018-06-29T19:38:02.843Z,44.75
2018-06-29T19:40:30.906Z,44.64
2018-06-29T19:42:58.987Z,45.13
2018-06-29T19:45:27.153Z,45.52
2018-06-29T19:47:55.206Z,45.50
2018-06-29T19:50:23.267Z,45.58
2018-06-29T19:52:51.360Z,45.75
2018-06-29T19:55:19.432Z,45.77
2018-06-29T19:57:47.492Z,46.07
2018-06-29T20:00:15.556Z,46.03
2018-06-29T20:02:43.604Z,46.08
2018-06-29T20:05:11.716Z,46.15
2018-06-29T20:07:39.739Z,46.29
2018-06-29T20:10:08.448Z,46.04
2018-06-29T20:12:36.494Z,46.04
2018-06-29T20:15:05.752Z,46.23
2018-06-29T20:17:33.817Z,46.03
2018-06-29T20:20:01.900Z,46.23
2018-06-29T20:22:29.957Z,45.83
2018-06-29T20:24:58.008Z,46.01
2018-06-29T20:27:26.052Z,45.85
2018-06-29T20:29:54.112Z,45.91
2018-06-29T20:32:22.181Z,45.42
2018-06-29T20:34:50.248Z,45.59
2018-06-29T20:37:18.304Z,45.57
2018-06-29T20:39:46.390Z,46.10
2018-06-29T20:42:15.336Z,45.62
2018-06-29T20:44:43.410Z,45.85
2018-06-29T20:47:11.513Z,45.02
2018-06-29T20:49:39.596Z,45.80
2018-06-29T20:52:07.689Z,45.55
2018-06-29T20:54:35.727Z,44.79
2018-06-29T20:57:03.844Z,44.98
2018-06-29T20:59:31.894Z,44.92
2018-06-29T21:01:59.969Z,45.15
2018-06-29T21:04:28.013Z,45.47
2018-06-29T21:06:56.092Z,44.96
2018-06-29T21:09:24.136Z,44.85
2018-06-29T21:11:52.244Z,45.06
2018-06-29T21:14:20.292Z,45.09
2018-06-29T21:16:48.356Z,45.34
2018-06-29T21:19:16.411Z,45.59
2018-06-29T21:21:44.483Z,45.32
2018-06-29T21:24:12.523Z,45.75
2018-06-29T21:26:40.588Z,45.13
2018-06-29T21:29:08.637Z,45.76
2018-06-29T21:31:36.706Z,45.84
2018-06-29T21:34:04.747Z,45.12
2018-06-29T21:36:32.792Z,45.97
2018-06-29T21:39:00.839Z,45.86
2018-06-29T21:41:29.095Z,45.82
2018-06-29T21:43:57.133Z,45.58
2018-06-29T21:46:25.187Z,46.08
2018-06-29T21:48:53.229Z,45.95
2018-06-29T21:51:21.275Z,45.34
2018-06-29T21:53:49.319Z,46.03
2018-06-29T21:56:17.380Z,45.49
2018-06-29T21:58:45.416Z,45.81
2018-06-29T22:01:13.559Z,46.36
2018-06-29T22:03:41.672Z,46.16
2018-06-29T22:06:09.725Z,46.13
2018-06-29T22:08:37.756Z,46.46
2018-06-29T22:11:05.800Z,46.21
2018-06-29T22:13:33.836Z,46.71
2018-06-29T22:16:01.875Z,46.67
2018-06-29T22:18:29.960Z,46.82
2018-06-29T22:20:58.004Z,46.80
2018-06-29T22:23:26.194Z,46.91
2018-06-29T22:25:54.236Z,47.23
2018-06-29T22:28:22.263Z,47.49
2018-06-29T22:30:50.306Z,47.62
2018-06-29T22:33:18.350Z,48.58
2018-06-29T22:35:46.383Z,48.51
2018-06-29T22:38:14.407Z,48.93
2018-06-29T22:40:42.436Z,48.64
2018-06-29T22:43:10.480Z,48.43
2018-06-29T22:45:38.508Z,49.28
2018-06-29T22:48:06.552Z,49.18
2018-06-29T22:50:34.588Z,49.13
2018-06-29T22:53:02.634Z,49.77
2018-06-29T22:55:30.684Z,49.82
2018-06-29T22:57:58.724Z,49.92
2018-06-29T23:00:26.756Z,49.58
2018-06-29T23:02:58.572Z,50.13
2018-06-29T23:05:26.625Z,49.79
2018-06-29T23:07:54.685Z,50.01
2018-06-29T23:10:22.708Z,50.52
2018-06-29T23:12:50.746Z,50.43
2018-06-29T23:15:18.780Z,50.56
2018-06-29T23:17:46.820Z,50.62
2018-06-29T23:20:14.853Z,50.70
2018-06-29T23:22:42.895Z,50.87
2018-06-29T23:25:10.949Z,50.99
2018-06-29T23:27:39.068Z,51.64
2018-06-29T23:30:07.110Z,51.88
2018-06-29T23:32:35.165Z,51.77
2018-06-29T23:35:03.203Z,52.01
2018-06-29T23:37:31.263Z,52.50
2018-06-29T23:39:59.320Z,52.58
2018-06-29T23:42:27.385Z,53.09
2018-06-29T23:44:55.412Z,53.50
2018-06-29T23:47:23.568Z,53.69
2018-06-29T23:49:51.615Z,54.16
2018-06-29T23:52:19.674Z,53.44
2018-06-29T23:54:47.707Z,54.85
2018-06-29T23:57:15.756Z,55.43
2018-06-29T23:59:43.780Z,55.05
